createdAt,value
2018-05-03T00:00:57.070Z,12.22
2018-05-03T00:01:57.198Z,12.20
2018-05-03T00:03:50.106Z,12.03
2018-05-03T00:04:50.168Z,12.06
2018-05-03T00:06:43.163Z,12.02
2018-05-03T00:07:43.214Z,11.97
2018-05-03T00:09:36.209Z,12.13
2018-05-03T00:10:36.259Z,11.99
2018-05-03T00:12:29.255Z,12.09
2018-05-03T00:13:29.313Z,12.17
2018-05-03T00:15:22.293Z,12.09
2018-05-03T00:16:22.352Z,12.12
2018-05-03T00:18:15.355Z,12.06
2018-05-03T00:19:15.400Z,12.02
2018-05-03T00:21:08.397Z,12.09
2018-05-03T00:22:08.444Z,12.09
2018-05-03T00:24:01.439Z,12.20
2018-05-03T00:25:01.492Z,12.17
2018-05-03T00:26:54.481Z,12.21
2018-05-03T00:27:54.537Z,12.22
2018-05-03T00:29:47.532Z,12.24
2018-05-03T00:30:47.591Z,12.18
2018-05-03T00:32:40.585Z,12.24
2018-05-03T00:33:40.636Z,12.25
2018-05-03T00:35:33.623Z,12.20
2018-05-03T00:36:33.683Z,12.21
2018-05-03T00:38:26.680Z,12.22
2018-05-03T00:39:26.729Z,12.27
2018-05-03T00:41:19.725Z,12.27
2018-05-03T00:42:19.781Z,12.27
2018-05-03T00:44:12.788Z,12.24
2018-05-03T00:45:12.848Z,12.21
2018-05-03T00:47:05.849Z,12.21
2018-05-03T00:48:05.902Z,12.22
2018-05-03T00:49:58.895Z,12.22
2018-05-03T00:50:58.951Z,12.22
2018-05-03T00:52:51.941Z,12.36
2018-05-03T00:53:51.996Z,12.37
2018-05-03T00:55:44.982Z,12.42
2018-05-03T00:56:45.047Z,12.37
2018-05-03T00:58:38.038Z,12.36
2018-05-03T00:59:38.089Z,12.37
2018-05-03T01:01:31.084Z,12.43
2018-05-03T01:02:31.133Z,12.43
2018-05-03T01:04:24.122Z,12.40
2018-05-03T01:05:24.184Z,12.32
2018-05-03T01:07:17.177Z,12.32
2018-05-03T01:08:17.231Z,12.28
2018-05-03T01:10:10.220Z,12.25
2018-05-03T01:11:10.278Z,12.24
2018-05-03T01:13:03.270Z,12.20
2018-05-03T01:14:03.324Z,12.20
2018-05-03T01:15:56.309Z,12.10
2018-05-03T01:16:56.369Z,12.17
2018-05-03T01:18:49.371Z,12.15
2018-05-03T01:19:49.416Z,12.06
2018-05-03T01:21:42.411Z,12.06
2018-05-03T01:22:42.462Z,12.04
2018-05-03T01:24:35.447Z,12.06
2018-05-03T01:25:35.509Z,12.06
2018-05-03T01:27:29.039Z,12.07
2018-05-03T01:28:28.563Z,12.09
2018-05-03T01:30:21.545Z,12.06
2018-05-03T01:31:21.604Z,12.02
2018-05-03T01:33:14.600Z,12.04
2018-05-03T01:34:14.649Z,12.06
2018-05-03T01:36:07.635Z,12.13
2018-05-03T01:37:07.695Z,12.15
2018-05-03T01:39:00.689Z,12.15
2018-05-03T01:40:00.748Z,12.12
2018-05-03T01:41:53.740Z,12.03
2018-05-03T01:42:53.796Z,12.02
2018-05-03T01:44:46.780Z,11.99
2018-05-03T01:45:46.842Z,12.04
2018-05-03T01:47:39.835Z,11.95
2018-05-03T01:48:39.886Z,11.94
2018-05-03T01:50:32.876Z,11.90
2018-05-03T01:51:32.939Z,11.86
2018-05-03T01:53:25.931Z,11.70
2018-05-03T01:54:25.988Z,11.80
2018-05-03T01:56:18.968Z,11.63
2018-05-03T01:57:19.026Z,11.55
2018-05-03T01:59:12.020Z,11.54
2018-05-03T02:00:12.074Z,11.55
2018-05-03T02:02:05.068Z,11.50
2018-05-03T02:03:05.117Z,11.54
2018-05-03T02:04:58.103Z,11.52
2018-05-03T02:05:58.164Z,11.54
2018-05-03T02:07:51.157Z,11.48
2018-05-03T02:08:51.216Z,11.48
2018-05-03T02:10:44.194Z,11.48
2018-05-03T02:11:44.254Z,11.52
2018-05-03T02:13:37.249Z,11.55
2018-05-03T02:14:37.304Z,11.43
2018-05-03T02:16:30.287Z,11.43
2018-05-03T02:17:30.348Z,11.40
2018-05-03T02:19:23.341Z,11.41
2018-05-03T02:20:23.393Z,11.43
2018-05-03T02:22:16.387Z,11.45
2018-05-03T02:23:16.439Z,11.35
2018-05-03T02:25:09.445Z,11.43
2018-05-03T02:26:09.502Z,11.41
2018-05-03T02:28:02.495Z,11.41
2018-05-03T02:29:02.551Z,11.47
2018-05-03T02:30:55.530Z,11.45
2018-05-03T02:31:55.596Z,11.43
2018-05-03T02:33:48.585Z,11.41
2018-05-03T02:34:48.638Z,11.37
2018-05-03T02:36:41.626Z,11.41
2018-05-03T02:37:41.687Z,11.44
2018-05-03T02:39:34.689Z,11.41
2018-05-03T02:40:34.743Z,11.44
2018-05-03T02:42:27.737Z,11.40
2018-05-03T02:43:27.788Z,11.40
2018-05-03T02:45:20.809Z,11.43
2018-05-03T02:46:20.840Z,11.40
2018-05-03T02:48:13.822Z,11.40
2018-05-03T02:49:13.877Z,11.45
2018-05-03T02:51:06.869Z,11.48
2018-05-03T02:52:06.927Z,11.47
2018-05-03T02:53:59.924Z,11.60
2018-05-03T02:54:59.977Z,11.55
2018-05-03T02:56:52.973Z,11.57
2018-05-03T02:57:53.029Z,11.55
2018-05-03T02:59:46.024Z,11.65
2018-05-03T03:00:46.077Z,11.63
2018-05-03T03:02:39.072Z,11.75
2018-05-03T03:03:39.125Z,11.75
2018-05-03T03:05:32.110Z,11.72
2018-05-03T03:06:32.168Z,11.60
2018-05-03T03:08:25.164Z,11.50
2018-05-03T03:09:25.216Z,11.44
2018-05-03T03:11:18.201Z,11.25
2018-05-03T03:12:18.258Z,11.23
2018-05-03T03:14:11.255Z,11.15
2018-05-03T03:15:11.310Z,11.23
2018-05-03T03:17:04.302Z,11.11
2018-05-03T03:18:04.358Z,11.07
2018-05-03T03:19:57.352Z,11.11
2018-05-03T03:20:57.402Z,11.22
2018-05-03T03:22:50.396Z,11.25
2018-05-03T03:23:50.450Z,11.15
2018-05-03T03:25:43.436Z,11.23
2018-05-03T03:26:43.495Z,11.27
2018-05-03T03:28:36.490Z,11.29
2018-05-03T03:29:36.541Z,11.30
2018-05-03T03:31:29.526Z,11.45
2018-05-03T03:32:29.585Z,11.47
2018-05-03T03:34:24.093Z,11.55
2018-05-03T03:35:24.139Z,11.51
2018-05-03T03:37:17.124Z,11.55
2018-05-03T03:38:17.183Z,11.55
2018-05-03T03:40:10.173Z,11.59
2018-05-03T03:41:10.231Z,11.69
2018-05-03T03:43:03.237Z,11.69
2018-05-03T03:44:03.274Z,11.68
2018-05-03T03:45:56.262Z,11.70
2018-05-03T03:46:56.323Z,11.72
2018-05-03T03:48:49.316Z,11.72
2018-05-03T03:49:49.367Z,11.72
2018-05-03T03:51:42.349Z,11.78
2018-05-03T03:52:42.411Z,11.88
2018-05-03T03:54:35.400Z,11.80
2018-05-03T03:55:35.464Z,11.83
2018-05-03T03:57:28.443Z,11.87
2018-05-03T03:58:28.503Z,11.90
2018-05-03T04:00:21.501Z,11.84
2018-05-03T04:01:21.554Z,11.87
2018-05-03T04:03:14.548Z,11.73
2018-05-03T04:04:14.598Z,11.75
2018-05-03T04:06:07.583Z,11.75
2018-05-03T04:07:07.644Z,11.72
2018-05-03T04:09:00.652Z,11.73
2018-05-03T04:10:00.697Z,11.78
2018-05-03T04:11:53.681Z,11.62
2018-05-03T04:12:53.797Z,11.59
2018-05-03T04:14:46.732Z,11.59
2018-05-03T04:15:46.787Z,11.57
2018-05-03T04:17:39.770Z,11.59
2018-05-03T04:18:39.831Z,11.52
2018-05-03T04:20:32.824Z,11.54
2018-05-03T04:21:32.878Z,11.57
2018-05-03T04:23:25.869Z,11.45
2018-05-03T04:24:25.923Z,11.52
2018-05-03T04:26:19.060Z,11.54
2018-05-03T04:27:18.970Z,11.48
2018-05-03T04:29:11.964Z,11.45
2018-05-03T04:30:12.016Z,11.47
2018-05-03T04:32:05.001Z,11.45
2018-05-03T04:33:05.068Z,11.37
2018-05-03T04:34:58.561Z,11.44
2018-05-03T04:35:58.614Z,11.45
2018-05-03T04:37:51.598Z,11.44
2018-05-03T04:38:51.657Z,11.43
2018-05-03T04:40:44.661Z,11.44
2018-05-03T04:41:44.706Z,11.57
2018-05-03T04:43:37.693Z,11.52
2018-05-03T04:44:37.746Z,11.43
2018-05-03T04:46:30.740Z,11.45
2018-05-03T04:47:30.789Z,11.45
2018-05-03T04:49:23.786Z,11.48
2018-05-03T04:50:23.833Z,11.48
2018-05-03T04:52:16.816Z,11.43
2018-05-03T04:53:16.877Z,11.52
2018-05-03T04:55:09.871Z,11.48
2018-05-03T04:56:09.917Z,11.50
2018-05-03T04:58:02.916Z,11.44
2018-05-03T04:59:02.975Z,11.51
2018-05-03T05:00:55.974Z,11.54
2018-05-03T05:01:56.030Z,11.55
2018-05-03T05:03:49.019Z,11.50
2018-05-03T05:04:49.101Z,11.55
2018-05-03T05:06:42.067Z,11.52
2018-05-03T05:07:42.123Z,11.54
2018-05-03T05:09:35.113Z,11.65
2018-05-03T05:10:35.235Z,11.66
2018-05-03T05:12:28.151Z,11.62
2018-05-03T05:13:28.211Z,11.70
2018-05-03T05:15:21.210Z,11.75
2018-05-03T05:16:21.256Z,11.75
2018-05-03T05:18:14.247Z,11.80
2018-05-03T05:19:14.308Z,11.73
2018-05-03T05:21:07.320Z,11.80
2018-05-03T05:22:07.358Z,11.72
2018-05-03T05:24:00.350Z,11.87
2018-05-03T05:25:00.400Z,11.84
2018-05-03T05:26:53.405Z,11.78
2018-05-03T05:27:53.444Z,11.95
2018-05-03T05:29:46.443Z,12.03
2018-05-03T05:30:46.579Z,12.03
2018-05-03T05:32:39.478Z,12.17
2018-05-03T05:33:39.539Z,12.15
2018-05-03T05:35:32.534Z,12.20
2018-05-03T05:36:32.584Z,12.12
2018-05-03T05:38:25.626Z,12.22
2018-05-03T05:39:25.649Z,12.21
2018-05-03T05:41:18.624Z,12.39
2018-05-03T05:42:18.674Z,12.37
2018-05-03T05:44:11.745Z,12.46
2018-05-03T05:45:11.801Z,12.45
2018-05-03T05:47:04.785Z,12.50
2018-05-03T05:48:04.844Z,12.49
2018-05-03T05:49:57.840Z,12.65
2018-05-03T05:50:57.925Z,12.79
2018-05-03T05:52:50.891Z,12.80
2018-05-03T05:53:50.945Z,12.85
2018-05-03T05:55:43.939Z,12.94
2018-05-03T05:56:44.059Z,12.98
2018-05-03T05:58:36.977Z,13.03
2018-05-03T05:59:37.038Z,13.04
2018-05-03T06:01:30.032Z,13.09
2018-05-03T06:02:30.084Z,13.04
2018-05-03T06:04:23.076Z,13.18
2018-05-03T06:05:23.131Z,13.42
2018-05-03T06:07:16.265Z,13.50
2018-05-03T06:08:16.185Z,13.71
2018-05-03T06:10:09.191Z,14.18
2018-05-03T06:11:09.236Z,14.47
2018-05-03T06:13:02.231Z,15.03
2018-05-03T06:14:02.291Z,14.78
2018-05-03T06:15:55.285Z,15.54
2018-05-03T06:16:55.341Z,16.12
2018-05-03T06:18:48.328Z,16.23
2018-05-03T06:19:48.391Z,15.92
2018-05-03T06:21:41.387Z,15.51
2018-05-03T06:22:41.440Z,15.43
2018-05-03T06:24:34.450Z,15.54
2018-05-03T06:25:34.492Z,15.61
2018-05-03T06:27:27.479Z,17.60
2018-05-03T06:28:27.546Z,17.72
2018-05-03T06:30:20.550Z,17.33
2018-05-03T06:31:20.594Z,17.38
2018-05-03T06:33:13.588Z,17.29
2018-05-03T06:34:13.662Z,17.45
2018-05-03T06:36:06.825Z,18.13
2018-05-03T06:37:06.741Z,18.65
2018-05-03T06:39:00.299Z,17.83
2018-05-03T06:40:00.347Z,17.67
2018-05-03T06:41:53.345Z,18.65
2018-05-03T06:42:53.404Z,19.12
2018-05-03T06:44:46.404Z,19.09
2018-05-03T06:45:46.463Z,20.51
2018-05-03T06:47:39.456Z,21.58
2018-05-03T06:48:39.520Z,20.81
2018-05-03T06:50:32.529Z,21.22
2018-05-03T06:51:32.605Z,22.32
2018-05-03T06:53:25.576Z,23.34
2018-05-03T06:54:25.664Z,23.13
2018-05-03T06:56:18.654Z,22.75
2018-05-03T06:57:18.719Z,21.55
2018-05-03T06:59:11.719Z,21.05
2018-05-03T07:00:11.790Z,22.36
2018-05-03T07:02:04.794Z,22.45
2018-05-03T07:03:04.859Z,23.37
2018-05-03T07:04:57.871Z,22.66
2018-05-03T07:05:57.926Z,23.54
2018-05-03T07:07:50.931Z,24.11
2018-05-03T07:08:51.008Z,24.05
2018-05-03T07:10:44.017Z,22.83
2018-05-03T07:11:44.075Z,22.45
2018-05-03T07:13:37.086Z,21.79
2018-05-03T07:14:37.146Z,22.36
2018-05-03T07:16:30.153Z,22.68
2018-05-03T07:17:30.221Z,22.13
2018-05-03T07:19:23.226Z,23.39
2018-05-03T07:20:23.300Z,23.39
2018-05-03T07:22:16.307Z,23.74
2018-05-03T07:23:16.373Z,24.92
2018-05-03T07:25:09.388Z,25.04
2018-05-03T07:26:09.460Z,25.06
2018-05-03T07:28:02.462Z,24.36
2018-05-03T07:29:02.528Z,24.24
2018-05-03T07:30:55.554Z,23.24
2018-05-03T07:31:55.604Z,23.55
2018-05-03T07:33:48.613Z,24.47
2018-05-03T07:34:48.761Z,23.99
2018-05-03T07:36:41.697Z,24.81
2018-05-03T07:37:41.764Z,24.99
2018-05-03T07:39:34.777Z,25.43
2018-05-03T07:40:34.861Z,26.43
2018-05-03T07:42:27.866Z,26.59
2018-05-03T07:43:27.928Z,25.70
2018-05-03T07:45:20.942Z,24.95
2018-05-03T07:46:21.009Z,24.38
2018-05-03T07:48:14.031Z,22.91
2018-05-03T07:49:14.093Z,23.03
2018-05-03T07:51:07.110Z,24.13
2018-05-03T07:52:07.171Z,23.65
2018-05-03T07:54:00.179Z,23.95
2018-05-03T07:55:00.250Z,25.29
2018-05-03T07:56:53.275Z,26.85
2018-05-03T07:57:53.332Z,27.75
2018-05-03T07:59:46.346Z,28.41
2018-05-03T08:00:46.414Z,28.82
2018-05-03T08:02:39.428Z,29.94
2018-05-03T08:03:39.499Z,29.82
2018-05-03T08:05:32.608Z,27.82
2018-05-03T08:06:32.663Z,26.23
2018-05-03T08:08:25.595Z,26.45
2018-05-03T08:09:25.669Z,26.15
2018-05-03T08:11:18.693Z,26.78
2018-05-03T08:12:18.761Z,26.22
2018-05-03T08:14:11.777Z,25.90
2018-05-03T08:15:11.854Z,26.26
2018-05-03T08:17:04.951Z,27.21
2018-05-03T08:18:04.942Z,27.51
2018-05-03T08:19:57.962Z,27.71
2018-05-03T08:20:58.035Z,27.65
2018-05-03T08:22:51.055Z,27.93
2018-05-03T08:23:51.122Z,27.95
2018-05-03T08:25:44.148Z,28.37
2018-05-03T08:26:44.217Z,27.98
2018-05-03T08:28:37.246Z,27.87
2018-05-03T08:29:37.310Z,27.90
2018-05-03T08:31:30.334Z,28.25
2018-05-03T08:32:30.403Z,27.93
2018-05-03T08:34:23.930Z,26.55
2018-05-03T08:35:24.014Z,26.81
2018-05-03T08:37:17.033Z,27.11
2018-05-03T08:38:17.100Z,26.88
2018-05-03T08:40:10.116Z,27.36
2018-05-03T08:41:10.194Z,27.49
2018-05-03T08:43:03.221Z,26.45
2018-05-03T08:44:03.293Z,26.06
2018-05-03T08:45:56.319Z,25.80
2018-05-03T08:46:56.386Z,25.43
2018-05-03T08:48:49.400Z,26.07
2018-05-03T08:49:49.474Z,26.89
2018-05-03T08:51:42.498Z,25.93
2018-05-03T08:52:42.568Z,25.66
2018-05-03T08:54:35.582Z,24.95
2018-05-03T08:55:35.719Z,25.70
2018-05-03T08:57:28.680Z,25.31
2018-05-03T08:58:28.748Z,25.14
2018-05-03T09:00:21.769Z,26.59
2018-05-03T09:01:21.864Z,26.75
2018-05-03T09:03:14.862Z,26.56
2018-05-03T09:04:14.928Z,26.66
2018-05-03T09:06:07.949Z,27.49
2018-05-03T09:07:08.019Z,27.87
2018-05-03T09:09:01.031Z,27.67
2018-05-03T09:10:01.106Z,27.55
2018-05-03T09:11:54.129Z,28.15
2018-05-03T09:12:54.196Z,28.14
2018-05-03T09:14:47.209Z,27.05
2018-05-03T09:15:47.284Z,26.02
2018-05-03T09:17:40.306Z,25.96
2018-05-03T09:18:40.375Z,25.66
2018-05-03T09:20:33.389Z,24.35
2018-05-03T09:21:33.465Z,23.80
2018-05-03T09:23:26.485Z,23.31
2018-05-03T09:24:26.555Z,23.10
2018-05-03T09:26:19.597Z,22.44
2018-05-03T09:27:19.640Z,22.11
2018-05-03T09:29:12.653Z,21.98
2018-05-03T09:30:12.722Z,21.79
2018-05-03T09:32:05.744Z,21.88
2018-05-03T09:33:05.803Z,22.08
2018-05-03T09:34:59.321Z,21.89
2018-05-03T09:35:59.389Z,21.82
2018-05-03T09:37:52.420Z,21.66
2018-05-03T09:38:52.487Z,21.52
2018-05-03T09:40:45.491Z,21.45
2018-05-03T09:41:45.556Z,21.35
2018-05-03T09:43:38.570Z,21.17
2018-05-03T09:44:38.633Z,20.92
2018-05-03T09:46:31.655Z,20.40
2018-05-03T09:47:31.721Z,20.28
2018-05-03T09:49:24.723Z,20.13
2018-05-03T09:50:24.793Z,20.00
2018-05-03T09:52:17.799Z,19.88
2018-05-03T09:53:17.867Z,19.81
2018-05-03T09:55:10.863Z,19.74
2018-05-03T09:56:10.937Z,19.74
2018-05-03T09:58:03.943Z,19.79
2018-05-03T09:59:04.004Z,19.88
2018-05-03T10:00:57.009Z,20.03
2018-05-03T10:01:57.072Z,20.06
2018-05-03T10:03:50.080Z,20.04
2018-05-03T10:04:50.220Z,20.02
2018-05-03T10:06:43.156Z,20.28
2018-05-03T10:07:43.210Z,20.25
2018-05-03T10:09:36.221Z,20.00
2018-05-03T10:10:36.284Z,19.91
2018-05-03T10:12:29.289Z,19.86
2018-05-03T10:13:29.352Z,19.74
2018-05-03T10:15:22.356Z,19.76
2018-05-03T10:16:22.421Z,19.76
2018-05-03T10:18:15.438Z,19.56
2018-05-03T10:19:15.501Z,19.56
2018-05-03T10:21:08.503Z,19.76
2018-05-03T10:22:08.566Z,19.95
2018-05-03T10:24:01.571Z,20.09
2018-05-03T10:25:01.632Z,19.91
2018-05-03T10:26:54.642Z,19.74
2018-05-03T10:27:54.699Z,19.79
2018-05-03T10:29:47.696Z,20.00
2018-05-03T10:30:47.763Z,20.00
2018-05-03T10:32:40.773Z,19.64
2018-05-03T10:33:40.834Z,19.44
2018-05-03T10:35:33.831Z,19.44
2018-05-03T10:36:33.900Z,19.56
2018-05-03T10:38:26.958Z,19.59
2018-05-03T10:39:26.963Z,19.77
2018-05-03T10:41:19.964Z,19.91
2018-05-03T10:42:20.061Z,19.79
2018-05-03T10:44:13.063Z,19.54
2018-05-03T10:45:13.097Z,19.39
2018-05-03T10:47:06.103Z,18.90
2018-05-03T10:48:06.162Z,18.63
2018-05-03T10:49:59.159Z,18.81
2018-05-03T10:50:59.227Z,18.83
2018-05-03T10:52:52.234Z,19.08
2018-05-03T10:53:52.295Z,19.00
2018-05-03T10:55:45.297Z,18.99
2018-05-03T10:56:45.364Z,19.04
2018-05-03T10:58:38.367Z,19.09
2018-05-03T10:59:38.427Z,19.04
2018-05-03T11:01:31.423Z,18.88
2018-05-03T11:02:31.493Z,18.81
2018-05-03T11:04:24.501Z,18.71
2018-05-03T11:05:24.596Z,18.62
2018-05-03T11:07:17.569Z,18.45
2018-05-03T11:08:17.626Z,18.31
2018-05-03T11:10:10.621Z,18.07
2018-05-03T11:11:10.697Z,18.26
2018-05-03T11:13:03.701Z,18.43
2018-05-03T11:14:03.751Z,18.53
2018-05-03T11:15:56.750Z,18.71
2018-05-03T11:16:56.818Z,18.75
2018-05-03T11:18:49.815Z,19.00
2018-05-03T11:19:49.873Z,18.75
2018-05-03T11:21:42.872Z,18.65
2018-05-03T11:22:42.936Z,18.68
2018-05-03T11:24:35.948Z,18.56
2018-05-03T11:25:36.000Z,18.52
2018-05-03T11:27:29.000Z,18.43
2018-05-03T11:28:29.056Z,18.29
2018-05-03T11:30:22.061Z,18.20
2018-05-03T11:31:22.185Z,18.11
2018-05-03T11:33:15.136Z,18.11
2018-05-03T11:34:15.197Z,18.15
2018-05-03T11:36:08.192Z,18.10
2018-05-03T11:37:08.260Z,18.25
2018-05-03T11:39:01.262Z,18.45
2018-05-03T11:40:01.322Z,18.49
2018-05-03T11:41:54.322Z,18.60
2018-05-03T11:42:54.384Z,18.52
2018-05-03T11:44:47.391Z,18.44
2018-05-03T11:45:47.442Z,18.35
2018-05-03T11:47:40.453Z,18.20
2018-05-03T11:48:40.580Z,18.11
2018-05-03T11:50:33.506Z,18.15
2018-05-03T11:51:33.569Z,18.29
2018-05-03T11:53:26.580Z,18.35
2018-05-03T11:54:26.644Z,18.28
2018-05-03T11:56:19.637Z,18.15
2018-05-03T11:57:19.703Z,18.15
2018-05-03T11:59:12.829Z,18.37
2018-05-03T12:00:12.768Z,18.31
2018-05-03T12:02:05.765Z,18.44
2018-05-03T12:03:05.826Z,18.55
2018-05-03T12:04:58.829Z,18.45
2018-05-03T12:05:58.934Z,18.45
2018-05-03T12:07:51.901Z,18.35
2018-05-03T12:08:51.954Z,18.33
2018-05-03T12:10:44.953Z,18.19
2018-05-03T12:11:45.016Z,18.26
2018-05-03T12:13:38.020Z,18.28
2018-05-03T12:14:38.077Z,18.28
2018-05-03T12:16:31.076Z,18.16
2018-05-03T12:17:31.146Z,18.19
2018-05-03T12:19:24.143Z,18.07
2018-05-03T12:20:24.207Z,18.31
2018-05-03T12:22:17.197Z,18.43
2018-05-03T12:23:17.263Z,18.49
2018-05-03T12:25:10.270Z,18.65
2018-05-03T12:26:10.331Z,18.62
2018-05-03T12:28:03.333Z,18.71
2018-05-03T12:29:03.392Z,18.78
2018-05-03T12:30:56.388Z,18.81
2018-05-03T12:31:56.453Z,18.93
2018-05-03T12:33:49.506Z,18.96
2018-05-03T12:34:49.518Z,19.18
2018-05-03T12:36:42.515Z,19.44
2018-05-03T12:37:42.575Z,19.51
2018-05-03T12:39:35.570Z,19.56
2018-05-03T12:40:35.633Z,19.55
2018-05-03T12:42:28.635Z,19.48
2018-05-03T12:43:28.694Z,19.44
2018-05-03T12:45:21.696Z,19.55
2018-05-03T12:46:21.755Z,19.59
2018-05-03T12:48:14.761Z,19.64
2018-05-03T12:49:14.820Z,19.51
2018-05-03T12:51:07.825Z,19.36
2018-05-03T12:52:07.890Z,19.39
2018-05-03T12:54:00.890Z,19.30
2018-05-03T12:55:00.948Z,19.15
2018-05-03T12:56:54.456Z,19.19
2018-05-03T12:57:54.519Z,19.12
2018-05-03T12:59:47.522Z,19.08
2018-05-03T13:00:47.593Z,19.09
2018-05-03T13:02:40.576Z,19.08
2018-05-03T13:03:40.640Z,18.96
2018-05-03T13:05:33.655Z,18.92
2018-05-03T13:06:33.705Z,18.96
2018-05-03T13:08:26.709Z,18.90
2018-05-03T13:09:26.771Z,18.92
2018-05-03T13:11:19.769Z,18.84
2018-05-03T13:12:19.849Z,19.04
2018-05-03T13:14:12.879Z,19.09
2018-05-03T13:15:12.888Z,19.04
2018-05-03T13:17:05.893Z,18.81
2018-05-03T13:18:05.961Z,18.74
2018-05-03T13:19:58.960Z,18.80
2018-05-03T13:20:59.021Z,18.80
2018-05-03T13:22:52.012Z,18.78
2018-05-03T13:23:52.080Z,18.89
2018-05-03T13:25:45.088Z,19.14
2018-05-03T13:26:45.149Z,19.26
2018-05-03T13:28:38.149Z,19.31
2018-05-03T13:29:38.212Z,19.33
2018-05-03T13:31:31.203Z,19.36
2018-05-03T13:32:31.269Z,19.49
2018-05-03T13:34:24.347Z,19.55
2018-05-03T13:35:24.328Z,19.64
2018-05-03T13:37:17.324Z,19.81
2018-05-03T13:38:17.400Z,19.95
2018-05-03T13:40:10.435Z,20.14
2018-05-03T13:41:10.471Z,20.06
2018-05-03T13:43:03.452Z,20.04
2018-05-03T13:44:03.518Z,20.13
2018-05-03T13:45:56.528Z,19.89
2018-05-03T13:46:56.588Z,19.99
2018-05-03T13:48:49.596Z,19.77
2018-05-03T13:49:49.660Z,19.62
2018-05-03T13:51:42.661Z,19.27
2018-05-03T13:52:42.725Z,19.26
2018-05-03T13:54:35.722Z,19.04
2018-05-03T13:55:35.806Z,18.99
2018-05-03T13:57:28.797Z,18.84
2018-05-03T13:58:28.856Z,18.77
2018-05-03T14:00:21.848Z,18.75
2018-05-03T14:01:21.908Z,18.73
2018-05-03T14:03:14.912Z,18.62
2018-05-03T14:04:14.978Z,18.60
2018-05-03T14:06:07.978Z,18.55
2018-05-03T14:07:08.127Z,18.52
2018-05-03T14:09:01.045Z,18.49
2018-05-03T14:10:01.101Z,18.43
2018-05-03T14:11:54.100Z,18.55
2018-05-03T14:12:54.225Z,18.53
2018-05-03T14:14:47.164Z,18.63
2018-05-03T14:15:47.225Z,18.83
2018-05-03T14:17:40.222Z,18.92
2018-05-03T14:18:40.289Z,18.93
2018-05-03T14:20:33.303Z,19.11
2018-05-03T14:21:33.338Z,19.16
2018-05-03T14:23:26.345Z,19.11
2018-05-03T14:24:26.410Z,19.24
2018-05-03T14:26:19.410Z,19.19
2018-05-03T14:27:19.472Z,19.04
2018-05-03T14:29:12.472Z,18.86
2018-05-03T14:30:12.535Z,18.81
2018-05-03T14:32:05.525Z,18.70
2018-05-03T14:33:05.591Z,18.50
2018-05-03T14:34:58.593Z,18.50
2018-05-03T14:35:58.650Z,18.40
2018-05-03T14:37:51.660Z,18.50
2018-05-03T14:38:51.762Z,18.37
2018-05-03T14:40:44.732Z,18.47
2018-05-03T14:41:44.823Z,18.53
2018-05-03T14:43:37.788Z,18.81
2018-05-03T14:44:37.849Z,18.75
2018-05-03T14:46:30.850Z,18.80
2018-05-03T14:47:30.907Z,18.86
2018-05-03T14:49:23.916Z,19.11
2018-05-03T14:50:23.972Z,19.19
2018-05-03T14:52:16.991Z,19.49
2018-05-03T14:53:17.069Z,19.37
2018-05-03T14:55:10.089Z,19.56
2018-05-03T14:56:10.124Z,19.59
2018-05-03T14:58:03.116Z,19.84
2018-05-03T14:59:03.182Z,19.84
2018-05-03T15:00:56.277Z,19.70
2018-05-03T15:01:56.244Z,19.56
2018-05-03T15:03:49.241Z,19.55
2018-05-03T15:04:49.304Z,19.34
2018-05-03T15:06:42.811Z,19.11
2018-05-03T15:07:42.871Z,19.02
2018-05-03T15:09:35.875Z,18.99
2018-05-03T15:10:35.972Z,18.98
2018-05-03T15:12:28.929Z,18.90
2018-05-03T15:13:28.997Z,18.84
2018-05-03T15:15:22.001Z,18.77
2018-05-03T15:16:22.230Z,18.74
2018-05-03T15:18:15.153Z,18.83
2018-05-03T15:19:15.137Z,18.80
2018-05-03T15:21:08.144Z,18.75
2018-05-03T15:22:08.195Z,18.81
2018-05-03T15:24:01.191Z,18.81
2018-05-03T15:25:01.256Z,18.88
2018-05-03T15:26:54.258Z,18.77
2018-05-03T15:27:54.320Z,18.80
2018-05-03T15:29:47.326Z,18.66
2018-05-03T15:30:47.378Z,18.60
2018-05-03T15:32:40.372Z,18.62
2018-05-03T15:33:40.439Z,18.63
2018-05-03T15:35:33.440Z,18.60
2018-05-03T15:36:33.498Z,18.56
2018-05-03T15:38:26.492Z,18.47
2018-05-03T15:39:26.560Z,18.35
2018-05-03T15:41:19.559Z,18.22
2018-05-03T15:42:19.618Z,18.23
2018-05-03T15:44:12.622Z,18.13
2018-05-03T15:45:12.683Z,18.04
2018-05-03T15:47:05.683Z,18.22
2018-05-03T15:48:05.747Z,18.22
2018-05-03T15:49:58.755Z,18.31
2018-05-03T15:50:58.800Z,18.35
2018-05-03T15:52:51.798Z,18.50
2018-05-03T15:53:51.862Z,18.53
2018-05-03T15:55:44.888Z,18.56
2018-05-03T15:56:44.918Z,18.52
2018-05-03T15:58:37.917Z,18.58
2018-05-03T15:59:37.978Z,18.70
2018-05-03T16:01:31.000Z,18.63
2018-05-03T16:02:31.038Z,18.66
2018-05-03T16:04:24.121Z,18.68
2018-05-03T16:05:24.106Z,18.71
2018-05-03T16:07:17.619Z,18.78
2018-05-03T16:08:17.671Z,18.80
2018-05-03T16:10:10.670Z,18.74
2018-05-03T16:11:10.735Z,18.89
2018-05-03T16:13:03.727Z,18.83
2018-05-03T16:14:03.793Z,18.74
2018-05-03T16:15:56.802Z,18.81
2018-05-03T16:16:56.856Z,18.78
2018-05-03T16:18:49.858Z,18.70
2018-05-03T16:19:49.922Z,18.70
2018-05-03T16:21:42.927Z,18.65
2018-05-03T16:22:42.983Z,18.63
2018-05-03T16:24:35.976Z,18.55
2018-05-03T16:25:36.041Z,18.55
2018-05-03T16:27:29.040Z,18.55
2018-05-03T16:28:29.219Z,18.47
2018-05-03T16:30:22.095Z,18.45
2018-05-03T16:31:22.148Z,18.43
2018-05-03T16:33:15.146Z,18.37
2018-05-03T16:34:15.210Z,18.35
2018-05-03T16:36:08.216Z,18.34
2018-05-03T16:37:08.270Z,18.43
2018-05-03T16:39:01.271Z,18.37
2018-05-03T16:40:01.336Z,18.50
2018-05-03T16:41:54.342Z,18.41
2018-05-03T16:42:54.403Z,18.44
2018-05-03T16:44:47.400Z,18.28
2018-05-03T16:45:47.465Z,18.22
2018-05-03T16:47:40.483Z,18.07
2018-05-03T16:48:40.524Z,18.10
2018-05-03T16:50:33.528Z,18.13
2018-05-03T16:51:33.589Z,18.15
2018-05-03T16:53:26.587Z,18.19
2018-05-03T16:54:26.643Z,18.19
2018-05-03T16:56:19.641Z,18.15
2018-05-03T16:57:19.701Z,18.20
2018-05-03T16:59:12.750Z,18.01
2018-05-03T17:00:12.759Z,18.04
2018-05-03T17:02:05.760Z,18.05
2018-05-03T17:03:05.824Z,17.94
2018-05-03T17:04:58.818Z,17.98
2018-05-03T17:05:59.169Z,18.05
2018-05-03T17:07:51.881Z,17.97
2018-05-03T17:08:51.943Z,17.90
2018-05-03T17:10:44.946Z,17.95
2018-05-03T17:11:45.009Z,17.89
2018-05-03T17:13:37.994Z,17.92
2018-05-03T17:14:38.059Z,17.92
2018-05-03T17:16:31.054Z,17.87
2018-05-03T17:17:31.115Z,17.97
2018-05-03T17:19:24.118Z,17.92
2018-05-03T17:20:24.180Z,17.87
2018-05-03T17:22:17.182Z,17.89
2018-05-03T17:23:17.237Z,17.82
2018-05-03T17:25:10.241Z,17.76
2018-05-03T17:26:10.293Z,17.79
2018-05-03T17:28:03.295Z,17.59
2018-05-03T17:29:03.352Z,17.56
2018-05-03T17:30:56.358Z,17.51
2018-05-03T17:31:56.417Z,17.54
2018-05-03T17:33:49.440Z,17.44
2018-05-03T17:34:49.470Z,17.42
2018-05-03T17:36:42.466Z,17.38
2018-05-03T17:37:42.519Z,17.30
2018-05-03T17:39:35.516Z,17.31
2018-05-03T17:40:35.584Z,17.36
2018-05-03T17:42:28.591Z,17.36
2018-05-03T17:43:28.666Z,17.31
2018-05-03T17:45:21.646Z,17.20
2018-05-03T17:46:21.706Z,17.23
2018-05-03T17:48:14.703Z,17.16
2018-05-03T17:49:15.028Z,17.11
2018-05-03T17:51:07.796Z,17.08
2018-05-03T17:52:07.817Z,17.11
2018-05-03T17:54:00.807Z,17.08
2018-05-03T17:55:00.871Z,17.15
2018-05-03T17:56:53.886Z,16.89
2018-05-03T17:57:53.927Z,16.91
2018-05-03T17:59:46.931Z,16.93
2018-05-03T18:00:46.989Z,16.81
2018-05-03T18:02:39.987Z,16.83
2018-05-03T18:03:40.047Z,16.75
2018-05-03T18:05:33.036Z,16.81
2018-05-03T18:06:33.100Z,16.72
2018-05-03T18:08:26.096Z,16.64
2018-05-03T18:09:26.150Z,16.65
2018-05-03T18:11:19.150Z,16.56
2018-05-03T18:12:19.206Z,16.54
2018-05-03T18:14:12.397Z,16.35
2018-05-03T18:15:12.267Z,16.36
2018-05-03T18:17:05.265Z,16.33
2018-05-03T18:18:05.318Z,16.26
2018-05-03T18:19:58.310Z,16.26
2018-05-03T18:20:58.373Z,16.35
2018-05-03T18:22:51.373Z,16.16
2018-05-03T18:23:51.430Z,16.23
2018-05-03T18:25:44.420Z,16.13
2018-05-03T18:26:44.479Z,16.08
2018-05-03T18:28:37.478Z,15.95
2018-05-03T18:29:37.533Z,15.91
2018-05-03T18:31:30.536Z,15.90
2018-05-03T18:32:30.587Z,15.86
2018-05-03T18:34:23.578Z,15.80